createdAt,value
2019-01-16T00:01:45.859Z,2.00
2019-01-16T00:05:23.293Z,2.10
2019-01-16T00:08:03.424Z,1.87
2019-01-16T00:12:42.452Z,1.20
2019-01-16T00:16:16.532Z,0.87
2019-01-16T00:18:50.492Z,1.17
2019-01-16T00:21:26.888Z,1.03
2019-01-16T00:24:12.100Z,0.80
2019-01-16T00:26:47.044Z,0.60
2019-01-16T00:29:22.013Z,0.70
2019-01-16T00:32:00.072Z,0.60
2019-01-16T00:34:39.287Z,0.40
2019-01-16T00:38:18.352Z,0.67
2019-01-16T00:40:57.535Z,0.70
2019-01-16T00:43:37.506Z,0.47
2019-01-16T00:48:24.413Z,0.60
2019-01-16T00:50:55.573Z,1.20
2019-01-16T00:53:30.856Z,1.10
2019-01-16T00:56:08.860Z,1.30
2019-01-16T00:58:45.798Z,1.40
2019-01-16T01:01:20.737Z,1.57
2019-01-16T01:04:09.917Z,1.63
2019-01-16T01:06:48.744Z,1.50
2019-01-16T01:11:27.992Z,1.90
2019-01-16T01:14:01.984Z,2.20
2019-01-16T01:16:37.840Z,2.20
2019-01-16T01:19:13.152Z,2.30
2019-01-16T01:21:48.028Z,2.20
2019-01-16T01:24:25.032Z,2.27
2019-01-16T01:27:02.881Z,2.20
2019-01-16T01:29:39.921Z,2.37
2019-01-16T01:33:16.783Z,2.53
2019-01-16T01:36:24.242Z,1.97
2019-01-16T01:39:57.026Z,2.10
2019-01-16T01:42:36.446Z,2.23
2019-01-16T01:45:16.317Z,2.90
2019-01-16T01:47:50.326Z,4.70
2019-01-16T01:51:25.224Z,4.13
2019-01-16T01:53:59.184Z,3.20
2019-01-16T01:56:34.979Z,4.23
2019-01-16T01:59:09.820Z,3.60
2019-01-16T02:01:46.864Z,3.00
2019-01-16T02:04:27.760Z,1.93
2019-01-16T02:09:09.364Z,2.90
2019-01-16T02:11:44.604Z,1.50
2019-01-16T02:14:19.767Z,1.17
2019-01-16T02:16:54.600Z,1.00
2019-01-16T02:19:31.490Z,1.17
2019-01-16T02:22:06.720Z,0.97
2019-01-16T02:24:41.574Z,1.30
2019-01-16T02:27:31.558Z,0.90
2019-01-16T02:30:06.557Z,0.73
2019-01-16T02:32:41.373Z,1.10
2019-01-16T02:35:16.630Z,0.90
2019-01-16T02:37:50.621Z,1.70
2019-01-16T02:40:30.893Z,3.70
2019-01-16T02:43:06.760Z,2.60
2019-01-16T02:45:43.705Z,1.60
2019-01-16T02:48:23.647Z,1.10
2019-01-16T02:50:58.938Z,1.00
2019-01-16T02:53:34.745Z,0.77
2019-01-16T02:56:09.832Z,1.03
2019-01-16T02:58:44.650Z,1.37
2019-01-16T03:01:18.597Z,1.00
2019-01-16T03:03:57.538Z,1.10
2019-01-16T03:06:32.521Z,0.87
2019-01-16T03:09:23.533Z,1.10
2019-01-16T03:12:03.591Z,1.10
2019-01-16T03:14:38.777Z,1.40
2019-01-16T03:17:17.673Z,1.40
2019-01-16T03:19:55.585Z,1.50
2019-01-16T03:22:30.720Z,2.77
2019-01-16T03:25:05.796Z,2.33
2019-01-16T03:27:40.660Z,1.93
2019-01-16T03:30:15.933Z,2.40
2019-01-16T03:32:51.248Z,3.20
2019-01-16T03:35:31.324Z,2.17
2019-01-16T03:38:06.611Z,1.90
2019-01-16T03:40:40.563Z,1.63
2019-01-16T03:43:17.312Z,1.60
2019-01-16T03:45:52.220Z,1.40
2019-01-16T03:48:32.203Z,1.70
2019-01-16T03:51:07.543Z,1.70
2019-01-16T03:53:43.781Z,1.47
2019-01-16T03:56:20.736Z,1.33
2019-01-16T03:59:04.112Z,1.40
2019-01-16T04:01:38.060Z,1.20
2019-01-16T04:04:11.992Z,1.37
2019-01-16T04:08:54.299Z,1.70
2019-01-16T04:11:32.048Z,1.50
2019-01-16T04:14:14.062Z,1.50
2019-01-16T04:16:48.064Z,1.30
2019-01-16T04:20:21.347Z,1.30
2019-01-16T04:22:57.392Z,1.87
2019-01-16T04:25:32.642Z,2.60
2019-01-16T04:28:07.797Z,2.97
2019-01-16T04:32:48.275Z,2.80
2019-01-16T04:37:31.610Z,2.20
2019-01-16T04:40:06.568Z,1.70
2019-01-16T04:42:40.539Z,1.50
2019-01-16T04:45:15.601Z,1.30
2019-01-16T04:47:50.482Z,1.40
2019-01-16T04:50:25.577Z,1.53
2019-01-16T04:53:03.576Z,1.17
2019-01-16T04:55:43.887Z,1.30
2019-01-16T04:58:18.068Z,1.17
2019-01-16T05:00:57.164Z,1.70
2019-01-16T05:03:31.176Z,1.70
2019-01-16T05:06:12.042Z,1.60
2019-01-16T05:08:46.007Z,1.43
2019-01-16T05:11:24.997Z,1.40
2019-01-16T05:14:07.976Z,1.77
2019-01-16T05:16:43.106Z,1.50
2019-01-16T05:19:17.164Z,2.60
2019-01-16T05:21:52.492Z,2.43
2019-01-16T05:24:30.516Z,2.77
2019-01-16T05:27:05.743Z,3.20
2019-01-16T05:29:41.041Z,3.63
2019-01-16T05:32:33.804Z,3.30
2019-01-16T05:35:09.301Z,2.60
2019-01-16T05:37:49.377Z,2.73
2019-01-16T05:40:27.912Z,2.30
2019-01-16T05:43:03.812Z,1.60
2019-01-16T05:45:39.927Z,1.70
2019-01-16T05:48:15.909Z,2.27
2019-01-16T05:51:01.360Z,1.80
2019-01-16T05:53:36.177Z,2.80
2019-01-16T05:56:14.093Z,2.63
2019-01-16T05:58:49.906Z,2.90
2019-01-16T06:01:26.845Z,3.00
2019-01-16T06:04:03.700Z,3.70
2019-01-16T06:06:39.632Z,3.47
2019-01-16T06:09:28.618Z,3.70
2019-01-16T06:12:03.595Z,3.30
2019-01-16T06:14:44.465Z,3.57
2019-01-16T06:19:28.712Z,3.00
2019-01-16T06:22:05.643Z,3.23
2019-01-16T06:24:42.378Z,3.90
2019-01-16T06:28:16.154Z,3.20
2019-01-16T06:30:54.389Z,5.83
2019-01-16T06:33:30.883Z,8.70
2019-01-16T06:36:41.170Z,9.83
2019-01-16T06:39:16.157Z,10.67
2019-01-16T06:41:51.357Z,12.10
2019-01-16T06:44:26.513Z,16.27
2019-01-16T06:47:01.563Z,14.50
2019-01-16T06:51:40.682Z,13.17
2019-01-16T06:54:20.640Z,12.67
2019-01-16T06:56:58.569Z,12.10
2019-01-16T06:59:33.286Z,11.33
2019-01-16T07:02:08.329Z,9.77
2019-01-16T07:04:43.057Z,10.10
2019-01-16T07:07:21.268Z,8.60
2019-01-16T07:09:59.090Z,7.87
2019-01-16T07:12:35.480Z,12.20
2019-01-16T07:15:11.975Z,10.77
2019-01-16T07:19:54.501Z,14.13
2019-01-16T07:22:29.410Z,21.20
2019-01-16T07:25:06.385Z,21.50
2019-01-16T07:27:46.196Z,21.97
2019-01-16T07:30:23.433Z,25.73
2019-01-16T07:33:02.316Z,24.90
2019-01-16T07:35:37.386Z,24.57
2019-01-16T07:38:21.184Z,24.83
2019-01-16T07:40:57.407Z,19.53
2019-01-16T07:44:37.285Z,19.73
2019-01-16T07:47:11.149Z,18.10
2019-01-16T07:51:49.665Z,17.13
2019-01-16T07:54:26.814Z,16.47
2019-01-16T07:57:05.691Z,14.53
2019-01-16T07:59:42.749Z,15.33
2019-01-16T08:02:23.719Z,17.07
2019-01-16T08:05:00.092Z,17.00
2019-01-16T08:07:43.898Z,17.93
2019-01-16T08:10:17.815Z,15.57
2019-01-16T08:12:52.641Z,14.90
2019-01-16T08:15:27.426Z,17.47
2019-01-16T08:18:01.334Z,18.67
2019-01-16T08:20:43.232Z,19.50
2019-01-16T08:23:20.962Z,20.87
2019-01-16T08:25:55.773Z,19.90
2019-01-16T08:28:30.866Z,22.33
2019-01-16T08:32:03.692Z,21.57
2019-01-16T08:34:39.471Z,20.73
2019-01-16T08:37:46.007Z,24.03
2019-01-16T08:40:21.958Z,28.43
2019-01-16T08:45:04.293Z,30.47
2019-01-16T08:47:41.145Z,32.07
2019-01-16T08:50:17.550Z,33.83
2019-01-16T08:52:52.353Z,35.70
2019-01-16T08:55:30.363Z,36.83
2019-01-16T08:59:03.457Z,36.13
2019-01-16T09:01:40.443Z,36.37
2019-01-16T09:04:23.295Z,36.77
2019-01-16T09:07:04.447Z,37.33
2019-01-16T09:10:39.938Z,34.43
2019-01-16T09:13:17.172Z,39.20
2019-01-16T09:15:53.094Z,38.80
2019-01-16T09:19:31.377Z,38.77
2019-01-16T09:22:06.361Z,37.97
2019-01-16T09:24:41.355Z,39.33
2019-01-16T09:27:16.533Z,40.00
2019-01-16T09:29:57.480Z,40.33
2019-01-16T09:32:31.398Z,39.23
2019-01-16T09:35:06.135Z,38.77
2019-01-16T09:37:46.245Z,37.33
2019-01-16T09:41:22.422Z,34.20
2019-01-16T09:43:57.205Z,28.37
2019-01-16T09:46:34.453Z,30.63
2019-01-16T09:49:09.581Z,22.10
2019-01-16T09:51:52.550Z,12.40
2019-01-16T09:54:30.471Z,10.03
2019-01-16T09:57:06.950Z,8.10
2019-01-16T09:59:55.877Z,8.60
2019-01-16T10:02:32.699Z,7.17
2019-01-16T10:06:06.226Z,7.93
2019-01-16T10:10:43.825Z,6.07
2019-01-16T10:13:20.847Z,5.90
2019-01-16T10:15:59.916Z,6.17
2019-01-16T10:20:46.302Z,6.17
2019-01-16T10:23:21.175Z,6.27
2019-01-16T10:25:59.454Z,6.77
2019-01-16T10:30:42.325Z,7.27
2019-01-16T10:33:20.166Z,6.60
2019-01-16T10:36:10.456Z,5.93
2019-01-16T10:38:45.585Z,6.30
2019-01-16T10:41:21.093Z,7.27
2019-01-16T10:43:57.893Z,7.40
2019-01-16T10:47:05.417Z,5.27
2019-01-16T10:49:42.345Z,7.27
2019-01-16T10:52:18.635Z,8.00
2019-01-16T10:54:58.943Z,6.30
2019-01-16T10:57:32.820Z,6.60
2019-01-16T11:02:16.256Z,7.70
2019-01-16T11:05:23.702Z,5.80
2019-01-16T11:08:30.215Z,5.03
2019-01-16T11:11:06.714Z,5.73
2019-01-16T11:13:42.347Z,4.10
2019-01-16T11:17:17.609Z,3.77
2019-01-16T11:20:29.287Z,3.60
2019-01-16T11:23:06.233Z,4.03
2019-01-16T11:25:41.297Z,3.83
2019-01-16T11:28:33.768Z,3.70
2019-01-16T11:31:10.237Z,4.30
2019-01-16T11:33:45.442Z,4.47
2019-01-16T11:36:23.672Z,5.60
2019-01-16T11:41:05.636Z,3.80
2019-01-16T11:44:17.105Z,2.77
2019-01-16T11:46:51.957Z,3.00
2019-01-16T11:49:26.836Z,2.67
2019-01-16T11:52:05.599Z,2.50
2019-01-16T11:54:41.482Z,3.13
2019-01-16T11:57:18.470Z,3.00
2019-01-16T11:59:55.602Z,3.50
2019-01-16T12:03:33.548Z,3.50
2019-01-16T12:06:08.558Z,3.93
2019-01-16T12:08:48.506Z,3.07
2019-01-16T12:11:26.005Z,3.40
2019-01-16T12:14:02.949Z,2.90
2019-01-16T12:16:40.437Z,3.03
2019-01-16T12:19:16.231Z,3.60
2019-01-16T12:23:53.645Z,3.93
2019-01-16T12:27:27.438Z,3.93
2019-01-16T12:30:09.539Z,4.73
2019-01-16T12:32:45.438Z,4.20
2019-01-16T12:35:22.209Z,3.63
2019-01-16T12:37:58.121Z,4.20
2019-01-16T12:41:34.138Z,4.00
2019-01-16T12:44:17.269Z,3.97
2019-01-16T12:46:52.350Z,4.37
2019-01-16T12:49:30.113Z,3.70
2019-01-16T12:53:07.197Z,4.03
2019-01-16T12:55:44.057Z,4.10
2019-01-16T12:58:18.943Z,4.43
2019-01-16T13:00:58.159Z,4.43
2019-01-16T13:03:32.061Z,4.97
2019-01-16T13:06:09.629Z,4.00
2019-01-16T13:08:46.423Z,4.17
2019-01-16T13:11:22.234Z,5.03
2019-01-16T13:13:57.204Z,4.40
2019-01-16T13:16:32.436Z,4.70
2019-01-16T13:19:15.265Z,4.67
2019-01-16T13:22:49.793Z,4.87
2019-01-16T13:25:25.698Z,5.00
2019-01-16T13:28:04.451Z,4.87
2019-01-16T13:31:11.657Z,5.53
2019-01-16T13:33:47.445Z,6.13
2019-01-16T13:36:29.117Z,6.07
2019-01-16T13:39:04.042Z,7.47
2019-01-16T13:41:39.222Z,7.17
2019-01-16T13:44:14.175Z,7.30
2019-01-16T13:46:49.193Z,7.77
2019-01-16T13:49:24.321Z,9.73
2019-01-16T13:51:59.510Z,9.47
2019-01-16T13:56:40.088Z,8.93
2019-01-16T13:59:14.973Z,9.87
2019-01-16T14:01:55.178Z,9.97
2019-01-16T14:04:37.205Z,10.40
2019-01-16T14:07:12.296Z,11.57
2019-01-16T14:09:47.463Z,12.27
2019-01-16T14:12:22.486Z,12.93
2019-01-16T14:14:57.549Z,13.13
2019-01-16T14:17:32.511Z,13.53
2019-01-16T14:20:07.545Z,12.13
2019-01-16T14:23:14.896Z,12.97
2019-01-16T14:25:49.664Z,13.03
2019-01-16T14:28:27.701Z,12.57
2019-01-16T14:33:06.484Z,11.60
2019-01-16T14:35:44.763Z,12.40
2019-01-16T14:38:54.977Z,13.47
2019-01-16T14:41:30.189Z,13.20
2019-01-16T14:46:09.628Z,13.10
2019-01-16T14:48:48.863Z,12.70
2019-01-16T14:51:26.425Z,12.10
2019-01-16T14:54:01.309Z,12.73
2019-01-16T14:56:44.693Z,10.53
2019-01-16T14:59:22.530Z,11.23
2019-01-16T15:01:57.671Z,13.23
2019-01-16T15:04:31.614Z,12.03
2019-01-16T15:08:11.560Z,11.20
2019-01-16T15:10:46.417Z,11.50
2019-01-16T15:13:24.523Z,11.67
2019-01-16T15:17:00.566Z,11.90
2019-01-16T15:19:52.662Z,11.33
2019-01-16T15:23:27.653Z,12.20
2019-01-16T15:26:05.422Z,11.40
2019-01-16T15:30:44.276Z,10.90
2019-01-16T15:33:27.253Z,10.73
2019-01-16T15:36:01.246Z,10.50
2019-01-16T15:38:37.166Z,11.93
2019-01-16T15:41:15.381Z,10.90
2019-01-16T15:43:55.330Z,11.03
2019-01-16T15:46:32.336Z,10.80
2019-01-16T15:49:07.442Z,11.30
2019-01-16T15:51:42.538Z,11.37
2019-01-16T15:54:23.845Z,10.40
2019-01-16T15:56:57.829Z,10.80
2019-01-16T15:59:34.655Z,10.17
2019-01-16T16:04:13.494Z,11.07
2019-01-16T16:07:19.858Z,10.57
2019-01-16T16:10:14.532Z,9.50
2019-01-16T16:12:49.362Z,11.30
2019-01-16T16:15:23.236Z,10.20
2019-01-16T16:17:58.313Z,10.37
2019-01-16T16:20:47.329Z,9.63
2019-01-16T16:25:26.385Z,9.73
2019-01-16T16:28:06.526Z,10.37
2019-01-16T16:30:47.657Z,10.23
2019-01-16T16:33:21.885Z,9.97
2019-01-16T16:36:56.612Z,10.73
2019-01-16T16:39:45.691Z,8.90
2019-01-16T16:42:26.793Z,10.43
2019-01-16T16:45:01.867Z,10.43
2019-01-16T16:47:36.909Z,11.00
2019-01-16T16:50:13.813Z,11.27
2019-01-16T16:52:53.838Z,10.87
2019-01-16T16:55:33.834Z,10.47
2019-01-16T16:58:10.718Z,11.10
2019-01-16T17:00:45.856Z,10.37
2019-01-16T17:03:23.935Z,10.97
2019-01-16T17:05:59.805Z,11.47
2019-01-16T17:09:35.474Z,11.53
2019-01-16T17:12:16.217Z,11.40
2019-01-16T17:14:52.230Z,12.17
2019-01-16T17:17:27.258Z,12.23
2019-01-16T17:20:03.138Z,12.63
2019-01-16T17:22:42.288Z,11.73
2019-01-16T17:25:36.335Z,12.60
2019-01-16T17:28:29.721Z,12.03
2019-01-16T17:31:05.734Z,12.13
2019-01-16T17:34:39.404Z,12.43
2019-01-16T17:37:14.490Z,11.63
2019-01-16T17:39:51.446Z,12.53
2019-01-16T17:42:26.481Z,12.97
2019-01-16T17:46:04.102Z,12.67
2019-01-16T17:48:40.317Z,12.53
2019-01-16T17:52:17.095Z,13.37
2019-01-16T17:54:51.974Z,13.03
2019-01-16T17:57:26.757Z,12.97
2019-01-16T18:00:02.574Z,14.50
2019-01-16T18:02:36.169Z,12.83
2019-01-16T18:05:10.891Z,13.90
2019-01-16T18:07:50.602Z,13.90
2019-01-16T18:10:56.390Z,12.57
2019-01-16T18:15:35.090Z,12.87
2019-01-16T18:18:45.209Z,12.30
2019-01-16T18:21:20.773Z,12.43
2019-01-16T18:24:04.649Z,12.73
2019-01-16T18:26:42.113Z,13.30
2019-01-16T18:29:20.819Z,13.17
2019-01-16T18:31:58.371Z,12.57
2019-01-16T18:35:32.781Z,13.00
2019-01-16T18:38:14.668Z,12.23
2019-01-16T18:40:49.336Z,12.20
2019-01-16T18:43:25.830Z,12.97
2019-01-16T18:47:05.297Z,13.50
2019-01-16T18:49:38.824Z,13.37
2019-01-16T18:52:15.157Z,13.30
2019-01-16T18:54:49.867Z,13.70
2019-01-16T18:57:24.360Z,12.40
2019-01-16T19:00:00.449Z,13.40
2019-01-16T19:02:36.457Z,12.00
2019-01-16T19:07:18.307Z,12.13
2019-01-16T19:09:52.848Z,12.40
2019-01-16T19:12:27.593Z,10.93
2019-01-16T19:15:08.195Z,11.23
2019-01-16T19:17:44.809Z,11.67
2019-01-16T19:20:20.496Z,11.33
2019-01-16T19:22:58.152Z,10.40
2019-01-16T19:25:36.727Z,10.87
2019-01-16T19:28:11.617Z,10.93
2019-01-16T19:30:52.278Z,10.70
2019-01-16T19:33:31.877Z,10.47
2019-01-16T19:36:38.757Z,9.80
2019-01-16T19:39:16.142Z,10.30
2019-01-16T19:41:50.662Z,12.43
2019-01-16T19:44:28.644Z,10.10
2019-01-16T19:48:04.572Z,9.87
2019-01-16T19:50:41.117Z,10.60
2019-01-16T19:53:22.931Z,10.63
2019-01-16T19:55:57.388Z,9.73
2019-01-16T19:58:32.987Z,10.47
2019-01-16T20:03:16.617Z,10.43
2019-01-16T20:05:52.077Z,10.47
2019-01-16T20:08:30.501Z,11.30
2019-01-16T20:11:06.284Z,9.23
2019-01-16T20:15:45.019Z,10.10
2019-01-16T20:18:50.297Z,10.10
2019-01-16T20:21:26.284Z,9.00
2019-01-16T20:24:11.884Z,9.93
2019-01-16T20:27:00.513Z,17.17
2019-01-16T20:29:35.199Z,9.67
2019-01-16T20:32:11.713Z,8.90
2019-01-16T20:34:46.611Z,9.20
2019-01-16T20:37:21.288Z,9.20
2019-01-16T20:39:56.108Z,9.10
2019-01-16T20:42:35.732Z,7.57
2019-01-16T20:45:13.962Z,8.83
2019-01-16T20:47:48.623Z,8.27
2019-01-16T20:50:24.189Z,7.60
2019-01-16T20:53:00.679Z,9.17
2019-01-16T20:55:46.022Z,8.50
2019-01-16T20:58:20.176Z,8.23
2019-01-16T21:00:55.694Z,8.20
2019-01-16T21:05:37.292Z,7.93
2019-01-16T21:08:14.858Z,7.97
2019-01-16T21:10:55.623Z,7.87
2019-01-16T21:13:31.064Z,7.73
2019-01-16T21:16:09.959Z,8.10
2019-01-16T21:19:17.945Z,7.57
2019-01-16T21:21:53.944Z,7.10
2019-01-16T21:24:28.497Z,6.63
2019-01-16T21:29:07.085Z,6.73
2019-01-16T21:32:45.113Z,6.60
2019-01-16T21:35:23.123Z,6.97
2019-01-16T21:38:59.543Z,6.10
2019-01-16T21:41:35.044Z,6.30
2019-01-16T21:46:13.677Z,6.03
2019-01-16T21:48:48.554Z,7.03
2019-01-16T21:51:24.604Z,8.47
2019-01-16T21:54:05.152Z,6.20
2019-01-16T21:56:38.679Z,5.53
2019-01-16T21:59:13.589Z,6.77
2019-01-16T22:01:49.788Z,5.50
2019-01-16T22:04:24.427Z,5.70
2019-01-16T22:07:03.328Z,5.93
2019-01-16T22:09:41.775Z,5.63
2019-01-16T22:13:15.471Z,5.53
2019-01-16T22:15:58.234Z,5.20
2019-01-16T22:19:04.074Z,4.77
2019-01-16T22:21:38.823Z,5.23
2019-01-16T22:24:14.468Z,4.60
2019-01-16T22:26:48.896Z,4.27
2019-01-16T22:29:24.896Z,4.30
2019-01-16T22:32:00.432Z,4.20
2019-01-16T22:34:35.898Z,4.63
2019-01-16T22:37:09.520Z,4.23
2019-01-16T22:40:43.631Z,4.30
2019-01-16T22:43:21.791Z,4.90
2019-01-16T22:46:04.287Z,4.70
2019-01-16T22:48:43.132Z,4.83
2019-01-16T22:52:19.789Z,5.10
2019-01-16T22:54:55.248Z,5.40
2019-01-16T22:57:29.618Z,6.07
2019-01-16T23:00:08.106Z,5.27
2019-01-16T23:02:43.693Z,4.83
2019-01-16T23:05:18.676Z,4.80
2019-01-16T23:08:02.521Z,5.30
2019-01-16T23:10:36.955Z,5.17
2019-01-16T23:13:13.603Z,5.23
2019-01-16T23:15:48.204Z,5.30
2019-01-16T23:20:26.743Z,5.13
2019-01-16T23:23:03.207Z,5.23
2019-01-16T23:25:36.794Z,4.90
2019-01-16T23:28:11.654Z,4.90
2019-01-16T23:30:49.189Z,5.83
2019-01-16T23:34:22.773Z,5.27
2019-01-16T23:37:00.551Z,5.73
2019-01-16T23:39:49.060Z,6.57
2019-01-16T23:42:44.114Z,6.13
2019-01-16T23:45:24.729Z,6.17
2019-01-16T23:47:59.625Z,6.13
2019-01-16T23:50:40.479Z,6.00
2019-01-16T23:53:17.788Z,6.50
2019-01-16T23:56:26.828Z,5.47
2019-01-16T23:59:02.273Z,5.90
